Time;durP1;ratioP1;P1;durP2;ratioP2;P2;SDS_P1;SDS_P2;PMS_P1;PMS_P2;Temp;Humidity;BMP_temperature;BMP_pressure;BME280_temperature;BME280_humidity;BME280_pressure;Samples;Min_cycle;Max_cycle;Signal;HPM_P1;HPM_P2
2021/10/25 00:01:55;;;;;;;5.20;4.13;;;3.60;99.90;;;;;;5068151;28;20033;-51
2021/10/25 00:04:21;;;;;;;4.97;3.28;;;3.60;99.90;;;;;;5067723;28;20542;-54
2021/10/25 00:06:47;;;;;;;5.78;3.67;;;3.60;99.90;;;;;;5068576;28;20035;-51
2021/10/25 00:09:13;;;;;;;6.15;4.07;;;3.60;99.90;;;;;;5052047;28;20091;-52
2021/10/25 00:11:39;;;;;;;6.13;3.42;;;3.50;99.90;;;;;;5062650;28;20032;-51
2021/10/25 00:14:04;;;;;;;6.47;3.72;;;3.50;99.90;;;;;;5068349;28;20028;-52
2021/10/25 00:16:30;;;;;;;4.10;3.53;;;3.50;99.90;;;;;;5068359;28;20508;-51
2021/10/25 00:18:55;;;;;;;5.15;3.60;;;3.50;99.90;;;;;;5067143;28;20166;-52
2021/10/25 00:21:21;;;;;;;5.78;3.63;;;3.50;99.90;;;;;;5067807;28;20484;-55
2021/10/25 00:23:47;;;;;;;7.25;3.90;;;3.50;99.90;;;;;;5068426;28;20028;-52
2021/10/25 00:26:12;;;;;;;5.30;3.67;;;3.50;99.90;;;;;;5067453;28;20187;-51
2021/10/25 00:28:38;;;;;;;6.57;4.10;;;3.50;99.90;;;;;;5068013;28;20032;-52
2021/10/25 00:31:03;;;;;;;7.32;3.38;;;3.50;99.90;;;;;;5059278;28;20090;-52
2021/10/25 00:33:29;;;;;;;7.75;3.50;;;3.50;99.90;;;;;;5061035;28;20094;-53
2021/10/25 00:35:55;;;;;;;5.28;3.72;;;3.50;99.90;;;;;;5066976;28;20043;-52
2021/10/25 00:38:20;;;;;;;7.30;4.28;;;3.50;99.90;;;;;;5068011;28;20090;-52
2021/10/25 00:40:47;;;;;;;11.60;4.40;;;3.50;99.90;;;;;;5067437;28;20052;-51
2021/10/25 00:43:13;;;;;;;6.00;4.28;;;3.50;99.90;;;;;;5068269;28;20032;-51
2021/10/25 00:45:38;;;;;;;5.93;3.45;;;3.50;99.90;;;;;;5067869;28;20032;-54
2021/10/25 00:48:04;;;;;;;7.13;3.83;;;3.50;99.90;;;;;;5068273;28;20024;-52
2021/10/25 00:50:30;;;;;;;8.13;4.22;;;3.50;99.90;;;;;;5067798;28;20099;-51
2021/10/25 00:52:55;;;;;;;5.78;3.95;;;3.40;99.90;;;;;;5067314;28;20056;-51
2021/10/25 00:55:22;;;;;;;6.57;3.83;;;3.40;99.90;;;;;;5067862;28;20090;-52
2021/10/25 00:57:47;;;;;;;3.85;3.45;;;3.40;99.90;;;;;;5067063;28;20064;-52
2021/10/25 01:00:13;;;;;;;7.57;4.07;;;3.40;99.90;;;;;;5064712;28;20452;-51
2021/10/25 01:02:40;;;;;;;6.32;3.63;;;3.40;99.90;;;;;;5087408;22;20044;-49
2021/10/25 01:05:06;;;;;;;5.88;3.60;;;3.40;99.90;;;;;;5066309;28;20469;-51
2021/10/25 01:07:33;;;;;;;7.65;3.67;;;3.40;99.90;;;;;;5067368;28;20016;-50
2021/10/25 01:10:01;;;;;;;5.38;3.72;;;3.40;99.90;;;;;;5067520;28;20099;-47
2021/10/25 01:12:26;;;;;;;5.38;3.55;;;3.40;99.90;;;;;;5065752;28;20032;-51
2021/10/25 01:14:52;;;;;;;4.80;3.03;;;3.40;99.90;;;;;;5067297;28;20028;-53
2021/10/25 01:17:17;;;;;;;5.60;3.60;;;3.30;99.90;;;;;;5067442;28;20028;-52
2021/10/25 01:19:43;;;;;;;5.80;3.72;;;3.30;99.90;;;;;;5067016;28;20032;-49
2021/10/25 01:22:08;;;;;;;6.15;3.88;;;3.30;99.90;;;;;;5067183;28;20032;-51
2021/10/25 01:24:34;;;;;;;5.05;3.80;;;3.30;99.90;;;;;;5067424;28;20040;-49
2021/10/25 01:27:00;;;;;;;9.98;5.38;;;3.30;99.90;;;;;;5067771;28;20032;-51
2021/10/25 01:29:25;;;;;;;8.15;6.20;;;3.20;99.90;;;;;;5066980;28;20404;-50
2021/10/25 01:31:51;;;;;;;10.70;6.38;;;3.20;99.90;;;;;;5066840;28;20111;-51
2021/10/25 01:34:16;;;;;;;8.88;6.57;;;3.20;99.90;;;;;;5067899;28;20024;-48
2021/10/25 01:36:42;;;;;;;8.85;6.90;;;3.20;99.90;;;;;;5067674;28;20117;-47
2021/10/25 01:39:09;;;;;;;10.23;6.70;;;3.20;99.90;;;;;;5066973;28;20039;-51
2021/10/25 01:41:35;;;;;;;11.05;6.28;;;3.10;99.90;;;;;;5067185;28;20054;-49
2021/10/25 01:44:01;;;;;;;10.90;5.85;;;3.20;99.90;;;;;;5066005;28;20021;-51
2021/10/25 01:46:26;;;;;;;9.00;5.32;;;3.10;99.90;;;;;;5066090;28;20495;-49
2021/10/25 01:48:52;;;;;;;7.68;5.70;;;3.10;99.90;;;;;;5067067;28;20032;-47
2021/10/25 01:51:18;;;;;;;7.57;4.97;;;3.10;99.90;;;;;;5066337;28;20032;-49
2021/10/25 01:53:45;;;;;;;6.70;5.30;;;3.10;99.90;;;;;;5068833;28;20020;-52
2021/10/25 01:56:12;;;;;;;6.82;5.70;;;3.10;99.90;;;;;;5064473;28;20035;-47
2021/10/25 01:58:38;;;;;;;10.70;5.57;;;3.00;99.90;;;;;;5070758;28;20111;-50
2021/10/25 02:01:04;;;;;;;8.48;5.75;;;3.00;99.90;;;;;;5066358;28;20412;-50
2021/10/25 02:03:32;;;;;;;8.02;5.22;;;3.00;99.90;;;;;;5055878;28;20037;-49
2021/10/25 02:05:57;;;;;;;5.75;4.65;;;3.00;99.90;;;;;;5060532;28;20490;-50
2021/10/25 02:08:23;;;;;;;6.60;4.63;;;2.90;99.90;;;;;;5070372;28;20036;-48
2021/10/25 02:10:49;;;;;;;9.95;4.55;;;3.00;99.90;;;;;;5068757;28;20024;-50
2021/10/25 02:13:16;;;;;;;6.72;5.35;;;3.00;99.90;;;;;;5070430;28;20032;-54
2021/10/25 02:15:43;;;;;;;8.98;4.60;;;3.00;99.90;;;;;;5069978;28;20031;-49
2021/10/25 02:18:09;;;;;;;6.43;4.88;;;2.90;99.90;;;;;;5070018;28;20029;-52
2021/10/25 02:20:34;;;;;;;6.72;4.28;;;2.90;99.90;;;;;;5070022;28;20031;-49
2021/10/25 02:23:00;;;;;;;6.75;3.88;;;2.90;99.90;;;;;;5070117;28;20060;-50
2021/10/25 02:25:25;;;;;;;6.25;4.22;;;2.90;99.90;;;;;;5068367;28;20024;-49
2021/10/25 02:27:51;;;;;;;5.57;3.80;;;2.90;99.90;;;;;;5070371;28;20016;-48
2021/10/25 02:30:17;;;;;;;9.02;4.75;;;2.90;99.90;;;;;;5069086;28;20047;-51
2021/10/25 02:32:45;;;;;;;6.75;4.53;;;2.90;99.90;;;;;;5069722;28;20063;-50
2021/10/25 02:35:10;;;;;;;5.38;3.72;;;2.90;99.90;;;;;;5070043;28;20025;-50
2021/10/25 02:37:36;;;;;;;4.53;3.75;;;2.80;99.90;;;;;;5070187;28;20059;-47
2021/10/25 02:40:02;;;;;;;6.97;4.15;;;2.80;99.90;;;;;;5068556;28;20056;-49
2021/10/25 02:42:28;;;;;;;6.03;3.83;;;2.80;99.90;;;;;;5069576;28;20060;-50
2021/10/25 02:44:54;;;;;;;9.07;4.35;;;2.80;99.90;;;;;;5069956;28;20020;-51
2021/10/25 02:47:19;;;;;;;6.63;4.25;;;2.80;99.90;;;;;;5068584;28;20551;-51
2021/10/25 02:49:45;;;;;;;5.85;4.13;;;2.80;99.90;;;;;;5068410;28;20025;-51
2021/10/25 02:52:11;;;;;;;4.63;3.60;;;2.70;99.90;;;;;;5065394;28;20147;-49
2021/10/25 02:54:36;;;;;;;7.70;4.30;;;2.70;99.90;;;;;;5050122;28;20104;-50
2021/10/25 02:57:02;;;;;;;6.40;4.25;;;2.70;99.90;;;;;;5048457;28;20112;-51
2021/10/25 02:59:28;;;;;;;5.90;3.92;;;2.70;99.90;;;;;;5049666;28;20028;-52
2021/10/25 03:01:54;;;;;;;6.13;4.53;;;2.70;99.90;;;;;;5049481;28;20527;-52
2021/10/25 03:04:20;;;;;;;6.40;4.75;;;2.70;99.90;;;;;;5064255;28;20409;-51
2021/10/25 03:06:46;;;;;;;6.65;4.68;;;2.70;99.90;;;;;;5069361;28;20020;-51
2021/10/25 03:09:12;;;;;;;7.60;4.18;;;2.70;99.90;;;;;;5068915;28;20025;-54
2021/10/25 03:11:38;;;;;;;6.70;3.88;;;2.70;99.90;;;;;;5069424;28;20035;-52
2021/10/25 03:14:04;;;;;;;5.72;4.35;;;2.70;99.90;;;;;;5069523;28;20020;-51
2021/10/25 03:16:29;;;;;;;6.35;4.30;;;2.70;99.90;;;;;;5069275;28;20040;-48
2021/10/25 03:18:55;;;;;;;6.85;3.72;;;2.70;99.90;;;;;;5069498;28;20506;-50
2021/10/25 03:21:22;;;;;;;5.97;4.32;;;2.60;99.90;;;;;;5068439;28;20028;-51
2021/10/25 03:23:49;;;;;;;6.57;3.80;;;2.60;99.90;;;;;;5068242;28;20016;-51
2021/10/25 03:26:16;;;;;;;5.32;3.83;;;2.60;99.90;;;;;;5069314;28;20044;-51
2021/10/25 03:28:42;;;;;;;4.72;3.92;;;2.60;99.90;;;;;;5068937;28;20120;-48
2021/10/25 03:31:08;;;;;;;6.80;4.50;;;2.60;99.90;;;;;;5068829;28;20515;-49
2021/10/25 03:33:35;;;;;;;7.00;3.80;;;2.60;99.90;;;;;;5068146;28;20037;-48
2021/10/25 03:36:04;;;;;;;5.35;3.75;;;2.60;99.90;;;;;;5069042;28;20672;-54
2021/10/25 03:38:31;;;;;;;7.10;4.53;;;2.50;99.90;;;;;;5069366;28;20108;-49
2021/10/25 03:40:57;;;;;;;4.47;3.63;;;2.50;99.90;;;;;;5068396;28;20027;-49
2021/10/25 03:43:27;;;;;;;6.00;3.67;;;2.50;99.90;;;;;;5068840;28;20111;-51
2021/10/25 03:46:01;;;;;;;5.90;3.67;;;2.50;99.90;;;;;;5067284;28;20035;-52
2021/10/25 03:48:35;;;;;;;7.45;4.60;;;2.50;99.90;;;;;;5068575;28;20023;-50
2021/10/25 03:51:01;;;;;;;8.07;4.75;;;2.50;99.90;;;;;;5068327;28;20072;-51
2021/10/25 03:53:41;;;;;;;6.40;4.13;;;2.50;99.90;;;;;;5068764;28;20056;-49
2021/10/25 03:56:13;;;;;;;7.57;4.78;;;2.50;99.90;;;;;;5068672;28;20085;-52
2021/10/25 04:04:22;;;;;;;5.45;4.28;;;2.40;99.90;;;;;;5068955;28;20051;-56
2021/10/25 04:26:28;;;;;;;7.45;4.25;;;2.30;99.90;;;;;;5042641;28;20080;-49
2021/10/25 04:28:54;;;;;;;8.48;4.55;;;2.30;99.90;;;;;;5048450;28;20013;-52
2021/10/25 04:31:19;;;;;;;8.48;4.15;;;2.30;99.90;;;;;;5048355;28;20025;-49
2021/10/25 04:33:45;;;;;;;6.80;4.22;;;2.30;99.90;;;;;;5048298;28;20021;-50
2021/10/25 04:36:11;;;;;;;5.10;3.92;;;2.30;99.90;;;;;;5047533;28;20036;-51
2021/10/25 04:38:37;;;;;;;10.32;4.28;;;2.30;99.90;;;;;;5048552;28;20029;-52
2021/10/25 04:41:03;;;;;;;5.18;4.45;;;2.30;99.90;;;;;;5048272;28;20035;-49
2021/10/25 04:43:28;;;;;;;5.32;4.10;;;2.30;99.90;;;;;;5068075;28;20600;-50
2021/10/25 04:45:54;;;;;;;6.55;4.50;;;2.30;99.90;;;;;;5067767;28;20032;-49
2021/10/25 04:48:20;;;;;;;7.80;4.70;;;2.20;99.90;;;;;;5063486;28;20040;-49
2021/10/25 04:50:45;;;;;;;7.38;4.82;;;2.20;99.90;;;;;;5067828;28;20035;-51
2021/10/25 04:53:11;;;;;;;8.52;4.78;;;2.20;99.90;;;;;;5067359;28;20029;-51
2021/10/25 04:55:37;;;;;;;7.15;4.45;;;2.20;99.90;;;;;;5067735;28;20040;-49
2021/10/25 04:58:03;;;;;;;6.28;4.15;;;2.20;99.90;;;;;;5067636;28;20470;-55
2021/10/25 05:00:28;;;;;;;5.85;4.75;;;2.20;99.90;;;;;;5067197;28;20024;-51
2021/10/25 05:02:55;;;;;;;8.35;4.20;;;2.20;99.90;;;;;;5066957;28;20040;-49
2021/10/25 05:05:22;;;;;;;4.30;3.90;;;2.20;99.90;;;;;;5066948;28;20396;-51
2021/10/25 05:07:47;;;;;;;11.15;4.80;;;2.20;99.90;;;;;;5068131;28;20548;-50
2021/10/25 05:10:13;;;;;;;6.93;4.78;;;2.20;99.90;;;;;;5067731;28;20171;-49
2021/10/25 05:12:38;;;;;;;7.18;4.72;;;2.10;99.90;;;;;;5066560;28;20122;-50
2021/10/25 05:15:05;;;;;;;7.15;4.20;;;2.10;99.90;;;;;;5067123;28;20029;-51
2021/10/25 05:17:30;;;;;;;7.25;4.40;;;2.10;99.90;;;;;;5067529;28;20032;-52
2021/10/25 05:19:56;;;;;;;8.65;5.35;;;2.10;99.90;;;;;;5067500;28;20028;-55
2021/10/25 05:22:23;;;;;;;7.20;4.80;;;2.10;99.90;;;;;;5067581;28;20028;-52
2021/10/25 05:24:49;;;;;;;5.65;5.05;;;2.00;99.90;;;;;;5067119;28;20048;-49
2021/10/25 05:27:16;;;;;;;5.82;4.63;;;2.00;99.90;;;;;;5067841;28;20079;-50
2021/10/25 05:29:41;;;;;;;7.32;4.45;;;2.00;99.90;;;;;;5071142;28;20392;-54
2021/10/25 05:32:07;;;;;;;4.30;3.90;;;2.00;99.90;;;;;;5070897;28;20044;-51
2021/10/25 05:34:34;;;;;;;7.18;4.75;;;2.00;99.90;;;;;;5069718;28;20044;-52
2021/10/25 05:37:00;;;;;;;6.57;4.88;;;2.00;99.90;;;;;;5071114;28;20030;-49
2021/10/25 05:39:25;;;;;;;5.95;5.30;;;2.00;99.90;;;;;;5066076;28;20021;-51
2021/10/25 05:41:51;;;;;;;6.75;4.57;;;2.00;99.90;;;;;;5070678;28;20403;-50
2021/10/25 05:44:19;;;;;;;10.57;4.85;;;2.00;99.90;;;;;;5071146;28;20036;-52
2021/10/25 05:46:44;;;;;;;7.85;4.68;;;2.00;99.90;;;;;;5070812;28;20021;-50
2021/10/25 05:49:10;;;;;;;6.68;4.80;;;2.00;99.90;;;;;;5070324;28;20050;-50
2021/10/25 05:51:35;;;;;;;7.40;4.95;;;2.00;99.90;;;;;;5070695;28;20087;-49
2021/10/25 05:54:04;;;;;;;8.65;4.82;;;2.00;99.90;;;;;;5071309;28;20073;-54
2021/10/25 05:56:30;;;;;;;6.43;4.65;;;2.00;99.90;;;;;;5064728;28;20024;-51
2021/10/25 05:58:56;;;;;;;7.03;5.00;;;1.90;99.90;;;;;;5070580;28;20021;-52
2021/10/25 06:01:27;;;;;;;8.70;5.20;;;1.90;99.90;;;;;;5069864;28;20063;-54
2021/10/25 06:03:58;;;;;;;7.00;4.97;;;1.90;99.90;;;;;;5070371;28;20079;-49
2021/10/25 06:06:24;;;;;;;6.65;5.00;;;1.90;99.90;;;;;;5071088;28;20157;-49
2021/10/25 06:08:49;;;;;;;9.27;4.88;;;1.90;99.90;;;;;;5051831;28;20135;-49
2021/10/25 06:11:15;;;;;;;7.38;4.97;;;1.90;99.90;;;;;;5058974;28;20029;-51
2021/10/25 06:13:42;;;;;;;7.97;5.30;;;1.90;99.90;;;;;;5069033;28;20036;-50
2021/10/25 06:16:16;;;;;;;8.02;4.85;;;1.90;99.90;;;;;;5070747;28;20036;-52
2021/10/25 06:18:42;;;;;;;7.55;5.00;;;1.90;99.90;;;;;;5069759;28;20023;-53
2021/10/25 06:21:08;;;;;;;8.15;6.13;;;1.90;99.90;;;;;;5069641;28;20111;-52
2021/10/25 06:23:35;;;;;;;7.13;5.28;;;1.90;99.90;;;;;;5070129;28;20025;-52
2021/10/25 06:26:02;;;;;;;6.70;5.18;;;1.90;99.90;;;;;;5070240;28;20476;-50
2021/10/25 06:28:27;;;;;;;7.63;5.18;;;1.90;99.90;;;;;;5070750;28;20017;-51
2021/10/25 06:30:58;;;;;;;7.93;5.50;;;1.90;99.90;;;;;;5070347;28;20028;-53
2021/10/25 06:33:24;;;;;;;6.85;4.95;;;1.90;99.90;;;;;;5070241;28;20043;-53
2021/10/25 06:36:04;;;;;;;9.25;5.35;;;2.00;99.90;;;;;;5069871;28;20028;-51
2021/10/25 06:38:32;;;;;;;5.50;4.70;;;1.90;99.90;;;;;;5069535;28;20082;-49
2021/10/25 06:41:00;;;;;;;7.07;5.63;;;1.90;99.90;;;;;;5069827;28;20024;-49
2021/10/25 06:43:26;;;;;;;7.30;5.43;;;2.00;99.90;;;;;;5068615;28;20021;-49
2021/10/25 06:45:52;;;;;;;8.85;5.18;;;1.90;99.90;;;;;;5068776;28;20028;-51
2021/10/25 06:48:17;;;;;;;9.80;5.50;;;1.90;99.90;;;;;;5065307;28;20029;-52
2021/10/25 06:50:43;;;;;;;7.40;5.38;;;2.00;99.90;;;;;;5065913;28;20063;-48
2021/10/25 06:53:09;;;;;;;9.32;6.10;;;2.00;99.90;;;;;;5070029;28;20454;-50
2021/10/25 06:55:38;;;;;;;6.97;5.28;;;2.00;99.90;;;;;;5070356;28;20024;-52
2021/10/25 06:58:04;;;;;;;7.55;5.60;;;2.00;99.90;;;;;;5070142;28;20107;-51
2021/10/25 07:00:30;;;;;;;8.48;6.30;;;2.00;99.90;;;;;;5069409;28;20029;-51
2021/10/25 07:02:56;;;;;;;7.32;5.65;;;2.10;99.90;;;;;;5085544;22;20416;-54
2021/10/25 07:05:21;;;;;;;13.77;5.07;;;2.10;99.90;;;;;;5031208;28;20061;-54
2021/10/25 07:07:47;;;;;;;10.13;4.90;;;2.10;99.90;;;;;;5050364;28;20088;-52
2021/10/25 07:10:13;;;;;;;9.73;5.65;;;2.10;99.90;;;;;;5050434;28;20145;-54
2021/10/25 07:12:39;;;;;;;8.50;5.63;;;2.10;99.90;;;;;;5049935;28;20108;-53
2021/10/25 07:15:06;;;;;;;6.43;5.55;;;2.10;99.90;;;;;;5050199;28;20017;-55
2021/10/25 07:23:01;;;;;;;8.27;6.25;;;2.20;99.90;;;;;;5049280;28;20086;-54
2021/10/25 08:06:13;;;;;;;17.48;9.48;;;3.10;99.90;;;;;;5048153;28;20114;-56
2021/10/25 08:11:32;;;;;;;13.52;10.63;;;3.50;99.90;;;;;;5048825;28;20078;-55
2021/10/25 08:14:03;;;;;;;13.95;10.77;;;3.80;99.90;;;;;;5049046;28;20025;-54
2021/10/25 08:16:47;;;;;;;16.60;11.93;;;4.00;99.90;;;;;;5048835;28;20120;-55
2021/10/25 08:19:28;;;;;;;15.02;11.55;;;4.30;99.90;;;;;;5026978;28;20021;-54
2021/10/25 08:22:02;;;;;;;15.88;12.10;;;4.60;99.90;;;;;;5048392;28;20400;-53
2021/10/25 08:24:30;;;;;;;17.48;13.13;;;4.90;99.90;;;;;;5048815;28;20037;-55
2021/10/25 08:26:56;;;;;;;17.55;13.48;;;5.10;99.90;;;;;;5048517;28;20029;-57
2021/10/25 08:29:23;;;;;;;21.42;13.98;;;5.40;99.90;;;;;;5048524;28;20425;-54
2021/10/25 08:34:41;;;;;;;18.77;12.27;;;5.80;99.90;;;;;;5043468;28;20670;-55
2021/10/25 08:39:53;;;;;;;21.60;13.57;;;6.00;99.90;;;;;;5053854;28;20025;-54
2021/10/25 08:42:30;;;;;;;16.50;12.13;;;6.10;99.90;;;;;;5050105;28;20032;-57
2021/10/25 08:45:11;;;;;;;12.88;10.10;;;6.20;99.90;;;;;;5047812;28;20033;-57
2021/10/25 08:47:43;;;;;;;16.65;10.73;;;6.30;99.90;;;;;;5047514;28;20061;-57
2021/10/25 08:50:15;;;;;;;13.82;10.18;;;6.30;99.90;;;;;;5047123;28;20096;-59
2021/10/25 08:52:41;;;;;;;14.07;10.00;;;6.30;99.90;;;;;;5046760;28;20024;-59
2021/10/25 08:55:12;;;;;;;14.02;9.05;;;6.20;99.90;;;;;;5047415;28;20108;-58
2021/10/25 08:57:40;;;;;;;13.82;9.15;;;6.20;99.90;;;;;;5048125;28;20028;-57
2021/10/25 09:00:14;;;;;;;11.23;8.52;;;6.30;99.90;;;;;;5047308;28;20025;-56
2021/10/25 09:02:40;;;;;;;10.07;8.68;;;6.40;99.90;;;;;;5050767;28;20033;-57
2021/10/25 09:05:10;;;;;;;11.65;8.45;;;6.40;99.90;;;;;;5052437;28;20061;-57
2021/10/25 09:07:52;;;;;;;13.25;8.27;;;6.60;99.90;;;;;;5051330;28;20043;-64
2021/10/25 09:10:40;;;;;;;14.73;9.65;;;6.70;99.90;;;;;;5051791;28;20095;-60
2021/10/25 09:13:17;;;;;;;10.82;8.25;;;6.70;99.90;;;;;;5032223;28;20053;-59
2021/10/25 09:15:47;;;;;;;10.00;8.35;;;6.90;99.90;;;;;;5036151;28;21843;-58
2021/10/25 09:18:18;;;;;;;13.65;8.93;;;6.90;99.90;;;;;;5033486;28;20029;-60
2021/10/25 09:20:59;;;;;;;11.95;8.35;;;7.00;99.90;;;;;;5050894;28;20029;-60
2021/10/25 09:23:49;;;;;;;10.45;7.97;;;7.10;99.90;;;;;;5051284;28;20021;-58
2021/10/25 09:26:18;;;;;;;9.85;8.43;;;7.20;99.90;;;;;;5051534;28;20092;-59
2021/10/25 09:28:51;;;;;;;12.48;8.43;;;7.30;99.90;;;;;;5051359;28;20103;-60
2021/10/25 09:31:30;;;;;;;11.80;8.00;;;7.40;99.90;;;;;;5051172;28;20495;-61
2021/10/25 09:33:59;;;;;;;13.15;8.57;;;7.50;99.90;;;;;;5050629;28;20699;-59
2021/10/25 09:36:48;;;;;;;10.43;7.80;;;7.60;99.90;;;;;;5050867;28;20043;-60
2021/10/25 09:39:24;;;;;;;12.30;7.70;;;7.70;99.90;;;;;;5053984;28;20056;-58
2021/10/25 09:49:55;;;;;;;10.38;8.10;;;7.90;99.90;;;;;;5046468;28;20031;-54
2021/10/25 09:52:32;;;;;;;11.55;8.65;;;7.90;99.90;;;;;;5050378;28;20601;-55
2021/10/25 09:55:06;;;;;;;12.52;8.35;;;8.00;99.90;;;;;;5050939;28;20587;-59
2021/10/25 09:57:39;;;;;;;11.05;8.07;;;8.20;99.90;;;;;;5050588;28;20155;-55
2021/10/25 10:00:07;;;;;;;12.95;8.30;;;8.20;99.90;;;;;;5027287;28;20033;-52
2021/10/25 10:02:34;;;;;;;11.57;7.97;;;8.30;99.90;;;;;;5041326;28;20064;-62
2021/10/25 10:05:03;;;;;;;24.55;9.02;;;8.40;99.90;;;;;;5033285;28;20021;-63
2021/10/25 10:07:30;;;;;;;12.88;8.27;;;8.50;99.90;;;;;;5050474;28;20477;-60
2021/10/25 10:09:56;;;;;;;16.23;8.10;;;8.60;99.90;;;;;;5032029;28;20020;-62
2021/10/25 10:12:24;;;;;;;9.73;7.22;;;8.70;99.90;;;;;;5050466;28;20057;-64
2021/10/25 10:14:52;;;;;;;10.90;8.77;;;8.80;99.90;;;;;;5050007;28;20100;-62
2021/10/25 10:17:48;;;;;;;10.23;7.70;;;8.90;99.90;;;;;;5050086;28;20083;-57
2021/10/25 10:20:20;;;;;;;12.63;8.07;;;8.90;99.90;;;;;;5050601;28;20464;-54
2021/10/25 10:22:51;;;;;;;9.93;7.93;;;9.00;99.90;;;;;;5050060;28;20392;-56
2021/10/25 10:25:39;;;;;;;8.43;6.72;;;9.10;99.90;;;;;;5050631;28;20017;-55
2021/10/25 10:28:07;;;;;;;8.88;6.95;;;9.20;99.90;;;;;;5041389;28;20043;-56
2021/10/25 10:30:51;;;;;;;10.00;6.97;;;9.30;99.90;;;;;;5049923;28;20051;-55
2021/10/25 10:33:17;;;;;;;7.40;6.60;;;9.40;99.90;;;;;;5050408;28;20404;-55
2021/10/25 10:35:46;;;;;;;11.73;6.82;;;9.50;99.90;;;;;;5049709;28;20044;-56
2021/10/25 10:38:13;;;;;;;8.68;6.97;;;9.70;99.90;;;;;;5050034;28;20104;-54
2021/10/25 10:40:41;;;;;;;8.10;6.15;;;9.80;99.90;;;;;;5064720;28;20027;-54
2021/10/25 10:43:22;;;;;;;8.52;6.28;;;9.90;99.90;;;;;;5069823;28;20024;-54
2021/10/25 10:46:04;;;;;;;8.02;6.15;;;10.00;99.90;;;;;;5049714;28;20063;-53
2021/10/25 10:48:35;;;;;;;9.23;6.72;;;10.00;99.90;;;;;;5049591;28;20121;-54
2021/10/25 10:51:05;;;;;;;7.95;6.88;;;10.00;99.90;;;;;;5050092;28;20385;-52
2021/10/25 10:53:37;;;;;;;9.20;6.35;;;10.00;99.90;;;;;;5049772;28;20020;-51
2021/10/25 10:56:33;;;;;;;10.23;6.07;;;10.00;99.90;;;;;;5050804;28;20047;-53
2021/10/25 11:01:32;;;;;;;7.82;6.38;;;10.10;99.90;;;;;;5050024;28;20075;-56
2021/10/25 11:04:00;;;;;;;7.20;5.72;;;10.20;99.90;;;;;;5033295;28;20035;-55
2021/10/25 11:06:32;;;;;;;6.85;5.30;;;10.30;99.90;;;;;;5028878;28;20029;-54
2021/10/25 11:08:58;;;;;;;7.70;5.70;;;10.30;99.90;;;;;;5030209;28;20440;-56
2021/10/25 11:11:24;;;;;;;10.15;5.75;;;10.40;99.90;;;;;;5041560;28;20028;-52
2021/10/25 11:13:56;;;;;;;9.13;5.35;;;10.40;99.90;;;;;;5049989;28;20374;-55
2021/10/25 11:16:41;;;;;;;8.10;5.97;;;10.40;99.90;;;;;;5049507;28;20029;-53
2021/10/25 11:19:08;;;;;;;10.10;5.47;;;10.50;99.90;;;;;;5047490;28;20103;-54
2021/10/25 11:21:40;;;;;;;11.32;5.88;;;10.50;99.90;;;;;;5049537;28;20112;-53
2021/10/25 11:24:13;;;;;;;9.45;5.88;;;10.60;99.90;;;;;;5048668;28;20366;-54
2021/10/25 11:26:43;;;;;;;7.95;4.97;;;10.60;99.90;;;;;;5048393;28;20036;-54
2021/10/25 11:29:11;;;;;;;6.90;5.25;;;10.70;99.90;;;;;;5049347;28;20491;-53
2021/10/25 11:31:50;;;;;;;9.07;5.65;;;10.70;99.90;;;;;;5049145;28;20108;-52
2021/10/25 11:34:31;;;;;;;8.50;5.68;;;10.80;99.90;;;;;;5049087;28;20036;-51
2021/10/25 11:37:26;;;;;;;8.32;5.30;;;10.80;99.90;;;;;;5049338;28;20052;-55
2021/10/25 11:40:03;;;;;;;9.63;5.45;;;10.80;99.90;;;;;;5046543;28;20381;-53
2021/10/25 11:42:34;;;;;;;7.55;5.28;;;10.90;99.90;;;;;;5063590;28;20048;-56
2021/10/25 11:45:13;;;;;;;7.63;4.82;;;10.90;99.90;;;;;;5048509;28;20051;-54
2021/10/25 11:47:49;;;;;;;5.22;4.72;;;10.90;99.90;;;;;;5048484;28;20484;-55
2021/10/25 11:50:15;;;;;;;5.20;4.70;;;11.00;99.90;;;;;;5034223;28;20022;-56
2021/10/25 11:52:46;;;;;;;10.98;5.57;;;11.00;99.90;;;;;;5045448;28;20104;-55
2021/10/25 11:55:14;;;;;;;6.60;5.93;;;11.10;99.90;;;;;;5034126;28;20056;-51
2021/10/25 11:57:48;;;;;;;11.93;8.15;;;11.20;99.90;;;;;;5030813;28;20061;-57
2021/10/25 12:00:16;;;;;;;9.23;4.82;;;11.30;99.90;;;;;;5048721;28;20048;-52
2021/10/25 12:02:44;;;;;;;7.20;5.35;;;11.30;99.90;;;;;;5038083;28;20033;-55
2021/10/25 12:05:10;;;;;;;7.55;4.75;;;11.30;99.90;;;;;;5048813;28;20024;-55
2021/10/25 12:07:49;;;;;;;6.28;4.65;;;11.30;99.90;;;;;;5048594;28;20091;-53
2021/10/25 12:10:17;;;;;;;7.43;4.85;;;11.20;99.90;;;;;;5048590;28;20047;-55
2021/10/25 12:12:43;;;;;;;8.18;6.20;;;11.20;99.90;;;;;;5048604;28;20031;-54
2021/10/25 12:15:16;;;;;;;7.75;5.18;;;11.20;99.90;;;;;;5048402;28;20021;-54
2021/10/25 12:17:43;;;;;;;9.55;8.10;;;11.20;99.90;;;;;;5048842;28;20021;-55
2021/10/25 12:20:21;;;;;;;7.63;5.25;;;11.20;99.90;;;;;;5048439;28;20662;-55
2021/10/25 12:22:57;;;;;;;10.95;7.22;;;11.20;99.90;;;;;;5048705;28;20032;-53
2021/10/25 12:25:22;;;;;;;8.27;5.38;;;11.20;99.90;;;;;;5048583;28;20036;-52
2021/10/25 12:27:48;;;;;;;7.18;5.05;;;11.30;99.90;;;;;;5048526;28;20025;-52
2021/10/25 12:30:17;;;;;;;8.48;5.05;;;11.30;99.90;;;;;;5048042;28;20051;-56
2021/10/25 12:32:58;;;;;;;6.15;4.35;;;11.40;99.90;;;;;;5048299;28;20448;-51
2021/10/25 12:35:34;;;;;;;6.60;4.47;;;11.40;99.90;;;;;;5047290;28;20021;-54
2021/10/25 12:38:06;;;;;;;7.57;4.60;;;11.40;99.90;;;;;;5047309;28;20028;-55
2021/10/25 12:40:44;;;;;;;7.00;5.18;;;11.50;99.90;;;;;;5040753;28;20033;-55
2021/10/25 12:43:10;;;;;;;7.82;5.38;;;11.40;99.90;;;;;;5038865;28;20064;-54
2021/10/25 12:45:44;;;;;;;6.38;4.78;;;11.50;99.90;;;;;;5047495;28;20449;-53
2021/10/25 12:48:14;;;;;;;6.07;4.97;;;11.50;99.90;;;;;;5047248;28;20082;-55
2021/10/25 12:50:44;;;;;;;5.28;4.32;;;11.50;99.90;;;;;;5047175;28;20032;-53
2021/10/25 12:53:12;;;;;;;7.35;5.00;;;11.50;99.90;;;;;;5047875;28;20115;-54
2021/10/25 12:55:40;;;;;;;5.15;4.65;;;11.50;99.90;;;;;;5047889;28;20033;-54
2021/10/25 12:58:11;;;;;;;7.65;5.65;;;11.50;99.90;;;;;;5047684;28;20061;-56
2021/10/25 13:00:38;;;;;;;7.63;4.70;;;11.40;99.90;;;;;;5047523;28;20096;-53
2021/10/25 13:03:11;;;;;;;7.63;4.10;;;11.40;99.90;;;;;;5029495;28;20032;-54
2021/10/25 13:05:38;;;;;;;6.93;5.32;;;11.40;99.90;;;;;;5047730;28;20036;-55
2021/10/25 13:08:08;;;;;;;7.07;4.90;;;11.30;99.90;;;;;;5048065;28;20082;-53
2021/10/25 13:10:42;;;;;;;9.00;4.57;;;11.40;99.90;;;;;;5047806;28;20057;-54
2021/10/25 13:13:10;;;;;;;7.63;4.38;;;11.40;99.90;;;;;;5047765;28;20033;-52
2021/10/25 13:15:37;;;;;;;5.78;3.80;;;11.40;99.90;;;;;;5047797;28;20028;-54
2021/10/25 13:18:04;;;;;;;6.68;4.07;;;11.40;99.90;;;;;;5047864;28;20117;-56
2021/10/25 13:20:32;;;;;;;6.45;4.75;;;11.30;99.90;;;;;;5047511;28;20598;-53
2021/10/25 13:22:59;;;;;;;11.32;4.00;;;11.40;99.90;;;;;;5047373;28;20067;-55
2021/10/25 13:25:26;;;;;;;5.68;4.63;;;11.40;99.90;;;;;;5047935;28;20025;-55
2021/10/25 13:27:53;;;;;;;8.85;4.55;;;11.40;99.90;;;;;;5047506;28;20143;-55
2021/10/25 13:30:21;;;;;;;5.38;4.00;;;11.40;99.90;;;;;;5047583;28;20074;-55
2021/10/25 13:32:47;;;;;;;9.60;4.88;;;11.40;99.90;;;;;;5047670;28;20025;-53
2021/10/25 13:35:14;;;;;;;5.00;4.28;;;11.40;99.90;;;;;;5046546;28;20443;-56
2021/10/25 13:37:40;;;;;;;6.00;4.63;;;11.40;99.90;;;;;;5045686;28;20512;-53
2021/10/25 13:40:06;;;;;;;6.95;4.35;;;11.40;99.90;;;;;;5046161;28;20037;-52
2021/10/25 13:42:33;;;;;;;6.22;3.70;;;11.40;99.90;;;;;;5046554;28;20052;-53
2021/10/25 13:44:59;;;;;;;8.20;4.70;;;11.30;99.90;;;;;;5046746;28;20033;-53
2021/10/25 13:47:26;;;;;;;6.75;4.22;;;11.40;99.90;;;;;;5047002;28;20032;-52
2021/10/25 13:49:52;;;;;;;5.95;3.42;;;11.30;99.90;;;;;;5049596;28;20035;-55
2021/10/25 13:52:18;;;;;;;9.23;4.47;;;11.40;99.90;;;;;;5049713;28;20025;-55
2021/10/25 13:54:44;;;;;;;8.50;4.13;;;11.40;99.90;;;;;;5050972;28;20040;-53
2021/10/25 13:57:10;;;;;;;6.82;4.00;;;11.30;99.90;;;;;;5049400;28;20033;-53
2021/10/25 13:59:37;;;;;;;6.30;4.25;;;11.30;99.90;;;;;;5050042;28;20029;-52
2021/10/25 14:02:06;;;;;;;7.18;4.18;;;11.30;99.90;;;;;;5050410;28;20071;-53
2021/10/25 14:04:33;;;;;;;6.53;4.07;;;11.30;99.90;;;;;;5050739;28;20064;-53
2021/10/25 14:07:00;;;;;;;4.88;3.55;;;11.30;99.90;;;;;;5046106;28;20013;-53
2021/10/25 14:09:26;;;;;;;3.92;3.35;;;11.30;99.90;;;;;;5041258;28;20485;-52
2021/10/25 14:11:55;;;;;;;6.65;3.95;;;11.30;99.90;;;;;;5046565;28;20021;-54
2021/10/25 14:14:23;;;;;;;6.75;3.88;;;11.30;99.90;;;;;;5050305;28;20083;-55
2021/10/25 14:16:52;;;;;;;4.80;3.72;;;11.30;99.90;;;;;;5050869;28;20028;-53
2021/10/25 14:19:20;;;;;;;5.90;3.70;;;11.40;99.90;;;;;;5050065;28;20020;-52
2021/10/25 14:21:50;;;;;;;6.03;4.38;;;11.30;99.90;;;;;;5032243;28;20028;-56
2021/10/25 14:24:15;;;;;;;8.27;3.83;;;11.30;99.90;;;;;;5032692;28;20037;-52
2021/10/25 14:26:41;;;;;;;6.72;3.72;;;11.30;99.90;;;;;;5050120;28;20108;-55
2021/10/25 14:29:08;;;;;;;6.88;4.18;;;11.30;99.90;;;;;;5049766;28;20499;-52